createdAt,value
2022-11-25T00:01:25.401Z,101085.00
2022-11-25T00:03:56.489Z,101088.00
2022-11-25T00:06:31.652Z,101078.00
2022-11-25T00:09:01.816Z,101086.00
2022-11-25T00:11:29.022Z,101096.00
2022-11-25T00:13:57.746Z,101083.00
2022-11-25T00:16:26.699Z,101092.00
2022-11-25T00:18:56.756Z,101086.00
2022-11-25T00:21:28.000Z,101088.00
2022-11-25T00:24:04.753Z,101085.00
2022-11-25T00:26:34.765Z,101088.00
2022-11-25T00:29:05.413Z,101080.00
2022-11-25T00:31:35.849Z,101085.00
2022-11-25T00:34:03.432Z,101083.00
2022-11-25T00:36:36.912Z,101092.00
2022-11-25T00:39:24.642Z,101086.00
2022-11-25T00:42:10.218Z,101085.00
2022-11-25T00:44:38.181Z,101086.00
2022-11-25T00:47:20.006Z,101094.00
2022-11-25T00:49:51.325Z,101081.00
2022-11-25T00:52:27.299Z,101094.00
2022-11-25T00:54:54.926Z,101089.00
2022-11-25T00:57:23.783Z,101099.00
2022-11-25T00:59:51.039Z,101100.00
2022-11-25T01:02:19.112Z,101091.00
2022-11-25T01:04:46.884Z,101104.00
2022-11-25T01:07:15.445Z,101094.00
2022-11-25T01:09:42.267Z,101099.00
2022-11-25T01:12:09.066Z,101087.00
2022-11-25T01:14:36.725Z,101094.00
2022-11-25T01:17:03.954Z,101087.00
2022-11-25T01:19:30.978Z,101091.00
2022-11-25T01:21:57.749Z,101095.00
2022-11-25T01:24:26.297Z,101091.00
2022-11-25T01:26:55.637Z,101089.00
2022-11-25T01:29:22.545Z,101086.00
2022-11-25T01:31:49.440Z,101088.00
2022-11-25T01:34:23.822Z,101094.00
2022-11-25T01:36:51.026Z,101081.00
2022-11-25T01:39:30.147Z,101087.00
2022-11-25T01:41:59.157Z,101081.00
2022-11-25T01:44:31.844Z,101077.00
2022-11-25T01:47:18.562Z,101073.00
2022-11-25T01:49:55.805Z,101079.00
2022-11-25T01:52:34.323Z,101079.00
2022-11-25T01:55:10.814Z,101069.00
2022-11-25T01:57:48.424Z,101069.00
2022-11-25T02:00:16.077Z,101068.00
2022-11-25T02:02:43.450Z,101071.00
2022-11-25T02:05:16.229Z,101077.00
2022-11-25T02:07:47.288Z,101077.00
2022-11-25T02:10:26.208Z,101059.00
2022-11-25T02:12:53.868Z,101068.00
2022-11-25T02:15:21.501Z,101059.00
2022-11-25T02:17:49.082Z,101063.00
2022-11-25T02:20:22.557Z,101051.00
2022-11-25T02:23:25.867Z,101055.00
2022-11-25T02:25:54.261Z,101053.00
2022-11-25T02:28:29.733Z,101049.00
2022-11-25T02:30:57.731Z,101053.00
2022-11-25T02:33:26.011Z,101048.00
2022-11-25T02:36:11.988Z,101052.00
2022-11-25T02:39:00.771Z,101059.00
2022-11-25T02:41:38.896Z,101053.00
2022-11-25T02:44:06.354Z,101056.00
2022-11-25T02:46:33.855Z,101063.00
2022-11-25T02:49:09.049Z,101061.00
2022-11-25T02:51:40.590Z,101059.00
2022-11-25T02:54:07.744Z,101055.00
2022-11-25T02:56:36.015Z,101066.00
2022-11-25T02:59:04.036Z,101078.00
2022-11-25T03:01:31.972Z,101071.00
2022-11-25T03:03:59.425Z,101064.00
2022-11-25T03:06:26.437Z,101078.00
2022-11-25T03:08:53.655Z,101090.00
2022-11-25T03:11:20.373Z,101081.00
2022-11-25T03:13:47.120Z,101077.00
2022-11-25T03:16:14.803Z,101067.00
2022-11-25T03:18:41.598Z,101085.00
2022-11-25T03:21:08.407Z,101064.00
2022-11-25T03:23:35.195Z,101064.00
2022-11-25T03:26:07.146Z,101095.00
2022-11-25T03:28:34.054Z,101087.00
2022-11-25T03:31:00.796Z,101099.00
2022-11-25T03:33:27.591Z,101079.00
2022-11-25T03:35:54.322Z,101090.00
2022-11-25T03:38:21.155Z,101082.00
2022-11-25T03:40:47.948Z,101079.00
2022-11-25T03:43:14.696Z,101089.00
2022-11-25T03:45:41.516Z,101088.00
2022-11-25T03:48:08.321Z,101083.00
2022-11-25T03:50:35.240Z,101084.00
2022-11-25T03:53:02.037Z,101087.00
2022-11-25T03:55:28.815Z,101078.00
2022-11-25T03:57:55.594Z,101071.00
2022-11-25T04:00:22.462Z,101078.00
2022-11-25T04:02:49.260Z,101080.00
2022-11-25T04:05:15.993Z,101076.00
2022-11-25T04:07:42.938Z,101081.00
2022-11-25T04:10:10.208Z,101081.00
2022-11-25T04:12:49.711Z,101074.00
2022-11-25T04:15:17.862Z,101087.00
2022-11-25T04:17:45.128Z,101088.00
2022-11-25T04:20:14.820Z,101092.00
2022-11-25T04:22:42.089Z,101080.00
2022-11-25T04:25:09.933Z,101080.00
2022-11-25T04:27:36.778Z,101089.00
2022-11-25T04:30:04.841Z,101103.00
2022-11-25T04:32:31.570Z,101099.00
2022-11-25T04:34:58.344Z,101107.00
2022-11-25T04:37:25.111Z,101104.00
2022-11-25T04:39:51.843Z,101114.00
2022-11-25T04:42:34.848Z,101106.00
2022-11-25T04:45:22.421Z,101101.00
2022-11-25T04:47:50.534Z,101107.00
2022-11-25T04:50:21.023Z,101095.00
2022-11-25T04:52:47.804Z,101109.00
2022-11-25T04:55:14.875Z,101108.00
2022-11-25T04:57:41.776Z,101101.00
2022-11-25T05:00:09.836Z,101114.00
2022-11-25T05:02:37.008Z,101111.00
2022-11-25T05:05:04.622Z,101100.00
2022-11-25T05:07:31.966Z,101107.00
2022-11-25T05:09:58.770Z,101105.00
2022-11-25T05:12:28.774Z,101100.00
2022-11-25T05:14:56.428Z,101117.00
2022-11-25T05:17:30.492Z,101103.00
2022-11-25T05:19:57.704Z,101106.00
2022-11-25T05:22:31.030Z,101107.00
2022-11-25T05:24:58.016Z,101108.00
2022-11-25T05:27:26.457Z,101119.00
2022-11-25T05:29:56.142Z,101119.00
2022-11-25T05:32:23.478Z,101120.00
2022-11-25T05:34:50.203Z,101120.00
2022-11-25T05:37:22.728Z,101125.00
2022-11-25T05:39:51.046Z,101128.00
2022-11-25T05:42:18.023Z,101131.00
2022-11-25T05:44:44.772Z,101134.00
2022-11-25T05:47:11.542Z,101142.00
2022-11-25T05:49:38.277Z,101131.00
2022-11-25T05:52:05.139Z,101139.00
2022-11-25T05:54:32.036Z,101130.00
2022-11-25T05:56:58.976Z,101140.00
2022-11-25T05:59:25.754Z,101125.00
2022-11-25T06:01:54.481Z,101127.00
2022-11-25T06:04:21.250Z,101133.00
2022-11-25T06:06:48.002Z,101137.00
2022-11-25T06:09:14.847Z,101131.00
2022-11-25T06:11:41.579Z,101126.00
2022-11-25T06:14:08.338Z,101133.00
2022-11-25T06:16:35.091Z,101137.00
2022-11-25T06:19:06.796Z,101132.00
2022-11-25T06:21:33.749Z,101129.00
2022-11-25T06:24:00.883Z,101127.00
2022-11-25T06:26:27.714Z,101120.00
2022-11-25T06:28:56.656Z,101117.00
2022-11-25T06:31:26.391Z,101130.00
2022-11-25T06:33:54.399Z,101126.00
2022-11-25T06:36:22.440Z,101121.00
2022-11-25T06:38:53.465Z,101119.00
2022-11-25T06:41:22.437Z,101123.00
2022-11-25T06:43:49.211Z,101132.00
2022-11-25T06:46:24.500Z,101127.00
2022-11-25T06:48:55.008Z,101129.00
2022-11-25T06:51:21.806Z,101134.00
2022-11-25T06:53:48.757Z,101140.00
2022-11-25T06:56:25.071Z,101145.00
2022-11-25T06:58:52.591Z,101140.00
2022-11-25T07:01:23.806Z,101146.00
2022-11-25T07:04:00.320Z,101149.00
2022-11-25T07:06:27.516Z,101147.00
2022-11-25T07:08:54.443Z,101159.00
2022-11-25T07:11:39.218Z,101152.00
2022-11-25T07:14:11.338Z,101154.00
2022-11-25T07:16:43.502Z,101157.00
2022-11-25T07:19:13.771Z,101162.00
2022-11-25T07:21:41.533Z,101177.00
2022-11-25T07:24:10.105Z,101185.00
2022-11-25T07:26:39.239Z,101188.00
2022-11-25T07:29:23.453Z,101184.00
2022-11-25T07:31:56.291Z,101191.00
2022-11-25T07:34:23.204Z,101179.00
2022-11-25T07:36:50.818Z,101194.00
2022-11-25T07:39:22.455Z,101206.00
2022-11-25T07:41:54.237Z,101208.00
2022-11-25T07:44:21.505Z,101202.00
2022-11-25T07:46:49.992Z,101200.00
2022-11-25T07:49:22.699Z,101201.00
2022-11-25T07:51:56.751Z,101199.00
2022-11-25T07:54:24.343Z,101197.00
2022-11-25T07:56:51.865Z,101195.00
2022-11-25T07:59:22.619Z,101189.00
2022-11-25T08:01:52.186Z,101189.00
2022-11-25T08:04:20.981Z,101191.00
2022-11-25T08:06:52.034Z,101195.00
2022-11-25T08:09:22.793Z,101180.00
2022-11-25T08:11:50.608Z,101185.00
2022-11-25T08:14:17.989Z,101191.00
2022-11-25T08:16:45.223Z,101195.00
2022-11-25T08:19:15.883Z,101200.00
2022-11-25T08:21:42.882Z,101197.00
2022-11-25T08:24:20.068Z,101206.00
2022-11-25T08:26:47.845Z,101208.00
2022-11-25T08:29:18.391Z,101205.00
2022-11-25T08:31:45.921Z,101203.00
2022-11-25T08:34:24.903Z,101211.00
2022-11-25T08:36:52.735Z,101215.00
2022-11-25T08:39:50.393Z,101208.00
2022-11-25T08:42:08.697Z,101207.00
2022-11-25T08:44:36.070Z,101207.00
2022-11-25T08:47:02.888Z,101209.00
2022-11-25T08:49:32.768Z,101213.00
2022-11-25T08:52:03.064Z,101219.00
2022-11-25T08:54:30.796Z,101219.00
2022-11-25T08:56:57.639Z,101219.00
2022-11-25T08:59:25.272Z,101212.00
2022-11-25T09:01:52.212Z,101218.00
2022-11-25T09:04:19.036Z,101220.00
2022-11-25T09:06:45.866Z,101224.00
2022-11-25T09:09:12.695Z,101221.00
2022-11-25T09:11:40.778Z,101225.00
2022-11-25T09:14:08.130Z,101218.00
2022-11-25T09:16:35.028Z,101230.00
2022-11-25T09:19:01.959Z,101221.00
2022-11-25T09:21:28.772Z,101230.00
2022-11-25T09:23:55.567Z,101227.00
2022-11-25T09:26:29.678Z,101226.00
2022-11-25T09:28:58.030Z,101225.00
2022-11-25T09:31:25.134Z,101217.00
2022-11-25T09:33:52.053Z,101220.00
2022-11-25T09:36:20.710Z,101222.00
2022-11-25T09:38:48.076Z,101227.00
2022-11-25T09:42:09.583Z,101220.00
2022-11-25T09:45:25.301Z,101230.00
2022-11-25T09:48:17.947Z,101225.00
2022-11-25T09:51:36.866Z,101218.00
2022-11-25T09:54:24.342Z,101209.00
2022-11-25T09:57:06.149Z,101216.00
2022-11-25T09:59:50.999Z,101213.00
2022-11-25T10:02:38.265Z,101213.00
2022-11-25T10:05:32.535Z,101209.00
2022-11-25T10:08:26.809Z,101210.00
2022-11-25T10:11:02.883Z,101211.00
2022-11-25T10:13:54.247Z,101205.00
2022-11-25T10:16:34.984Z,101203.00
2022-11-25T10:19:24.798Z,101201.00
2022-11-25T10:21:52.446Z,101198.00
2022-11-25T10:24:21.389Z,101188.00
2022-11-25T10:27:00.063Z,101213.00
2022-11-25T10:29:30.335Z,101207.00
2022-11-25T10:32:19.607Z,101219.00
2022-11-25T10:34:58.568Z,101216.00
2022-11-25T10:37:42.993Z,101213.00
2022-11-25T10:40:18.053Z,101200.00
2022-11-25T10:42:45.093Z,101211.00
2022-11-25T10:45:12.661Z,101206.00
2022-11-25T10:48:04.314Z,101208.00
2022-11-25T10:50:51.715Z,101210.00
2022-11-25T10:53:25.719Z,101208.00
2022-11-25T10:56:01.710Z,101200.00
2022-11-25T10:58:35.656Z,101207.00
2022-11-25T11:01:06.641Z,101218.00
2022-11-25T11:03:34.538Z,101210.00
2022-11-25T11:06:01.538Z,101231.00
2022-11-25T11:08:39.725Z,101234.00
2022-11-25T11:11:21.737Z,101230.00
2022-11-25T11:13:57.209Z,101217.00
2022-11-25T11:16:37.495Z,101222.00
2022-11-25T11:19:05.155Z,101216.00
2022-11-25T11:21:37.393Z,101220.00
2022-11-25T11:24:25.189Z,101221.00
2022-11-25T11:27:25.708Z,101216.00
2022-11-25T11:30:20.354Z,101209.00
2022-11-25T11:33:21.099Z,101209.00
2022-11-25T11:36:07.696Z,101219.00
2022-11-25T11:38:51.765Z,101215.00
2022-11-25T11:41:44.821Z,101212.00
2022-11-25T11:44:35.107Z,101212.00
2022-11-25T11:47:22.639Z,101216.00
2022-11-25T11:50:21.945Z,101204.00
2022-11-25T11:52:58.567Z,101202.00
2022-11-25T11:59:42.608Z,101210.00
2022-11-25T12:02:43.999Z,101200.00
2022-11-25T12:05:10.703Z,101206.00
2022-11-25T12:08:17.064Z,101205.00
2022-11-25T12:10:56.221Z,101186.00
2022-11-25T12:13:33.337Z,101193.00
2022-11-25T12:16:17.360Z,101193.00
2022-11-25T12:18:55.225Z,101180.00
2022-11-25T12:21:45.365Z,101200.00
2022-11-25T12:24:40.522Z,101182.00
2022-11-25T12:27:24.438Z,101191.00
2022-11-25T12:30:17.493Z,101182.00
2022-11-25T12:33:07.727Z,101189.00
2022-11-25T12:36:06.189Z,101191.00
2022-11-25T12:38:59.619Z,101188.00
2022-11-25T12:41:49.171Z,101194.00
2022-11-25T12:44:49.893Z,101189.00
2022-11-25T12:47:16.737Z,101189.00
2022-11-25T12:49:50.974Z,101192.00
2022-11-25T12:52:49.477Z,101185.00
2022-11-25T12:55:25.536Z,101196.00
2022-11-25T12:58:13.918Z,101194.00
2022-11-25T13:01:24.196Z,101192.00
2022-11-25T13:04:09.365Z,101185.00
2022-11-25T13:06:59.357Z,101180.00
2022-11-25T13:10:03.165Z,101183.00
2022-11-25T13:13:01.041Z,101182.00
2022-11-25T13:15:46.742Z,101192.00
2022-11-25T13:18:19.937Z,101181.00
2022-11-25T13:20:53.699Z,101184.00
2022-11-25T13:23:28.811Z,101204.00
2022-11-25T13:26:34.684Z,101191.00
2022-11-25T13:29:14.479Z,101205.00
2022-11-25T13:32:02.758Z,101209.00
2022-11-25T13:34:34.827Z,101211.00
2022-11-25T13:37:36.650Z,101219.00
2022-11-25T13:40:31.263Z,101220.00
2022-11-25T13:43:00.427Z,101231.00
2022-11-25T13:45:44.899Z,101224.00
2022-11-25T13:48:26.716Z,101233.00
2022-11-25T13:51:20.725Z,101223.00
2022-11-25T13:54:05.531Z,101229.00
2022-11-25T13:56:37.222Z,101218.00
2022-11-25T13:59:16.478Z,101231.00
2022-11-25T14:01:46.057Z,101234.00
2022-11-25T14:04:18.664Z,101236.00
2022-11-25T14:07:20.085Z,101233.00
2022-11-25T14:10:21.168Z,101239.00
2022-11-25T14:13:16.572Z,101233.00
2022-11-25T14:16:25.376Z,101231.00
2022-11-25T14:22:47.900Z,101243.00
2022-11-25T14:25:48.241Z,101238.00
2022-11-25T14:28:35.540Z,101245.00
2022-11-25T14:31:12.375Z,101251.00
2022-11-25T14:33:59.491Z,101252.00
2022-11-25T14:36:40.630Z,101248.00
2022-11-25T14:39:22.738Z,101253.00
2022-11-25T14:42:03.944Z,101251.00
2022-11-25T14:44:47.345Z,101255.00
2022-11-25T14:47:14.133Z,101267.00
2022-11-25T14:50:05.233Z,101264.00
2022-11-25T14:52:36.405Z,101276.00
2022-11-25T14:55:05.886Z,101267.00
2022-11-25T14:57:37.281Z,101273.00
2022-11-25T15:00:15.649Z,101270.00
2022-11-25T15:03:00.916Z,101276.00
2022-11-25T15:05:40.922Z,101286.00
2022-11-25T15:08:16.036Z,101285.00
2022-11-25T15:11:02.256Z,101286.00
2022-11-25T15:13:42.940Z,101286.00
2022-11-25T15:16:30.988Z,101281.00
2022-11-25T15:19:01.672Z,101290.00
2022-11-25T15:22:07.148Z,101292.00
2022-11-25T15:24:33.033Z,101300.00
2022-11-25T15:27:02.838Z,101298.00
2022-11-25T15:29:39.913Z,101288.00
2022-11-25T15:32:12.753Z,101291.00
2022-11-25T15:34:39.749Z,101295.00
2022-11-25T15:37:06.503Z,101298.00
2022-11-25T15:39:33.239Z,101292.00
2022-11-25T15:42:26.516Z,101303.00
2022-11-25T15:45:08.794Z,101297.00
2022-11-25T15:47:36.198Z,101286.00
2022-11-25T15:50:21.912Z,101293.00
2022-11-25T15:52:54.276Z,101297.00
2022-11-25T15:55:41.304Z,101294.00
2022-11-25T15:58:21.790Z,101297.00
2022-11-25T16:01:17.556Z,101292.00
2022-11-25T16:03:46.266Z,101296.00
2022-11-25T16:06:25.710Z,101295.00
2022-11-25T16:09:05.284Z,101301.00
2022-11-25T16:11:45.183Z,101286.00
2022-11-25T16:14:29.297Z,101301.00
2022-11-25T16:17:09.428Z,101297.00
2022-11-25T16:19:45.653Z,101302.00
2022-11-25T16:22:19.021Z,101307.00
2022-11-25T16:25:01.847Z,101312.00
2022-11-25T16:27:30.002Z,101313.00
2022-11-25T16:30:17.469Z,101313.00
2022-11-25T16:32:44.525Z,101308.00
2022-11-25T16:35:22.172Z,101311.00
2022-11-25T16:37:49.774Z,101311.00
2022-11-25T16:40:18.635Z,101310.00
2022-11-25T16:42:49.498Z,101315.00
2022-11-25T16:45:22.515Z,101306.00
2022-11-25T16:47:49.996Z,101308.00
2022-11-25T16:50:18.850Z,101317.00
2022-11-25T16:52:45.653Z,101315.00
2022-11-25T16:55:12.645Z,101317.00
2022-11-25T16:57:41.505Z,101319.00
2022-11-25T17:00:16.845Z,101324.00
2022-11-25T17:02:44.879Z,101326.00
2022-11-25T17:05:22.901Z,101330.00
2022-11-25T17:07:50.324Z,101329.00
2022-11-25T17:10:18.355Z,101320.00
2022-11-25T17:12:47.730Z,101318.00
2022-11-25T17:15:31.949Z,101319.00
2022-11-25T17:17:59.065Z,101329.00
2022-11-25T17:20:25.970Z,101319.00
2022-11-25T17:22:54.125Z,101330.00
2022-11-25T17:25:23.370Z,101333.00
2022-11-25T17:27:51.457Z,101341.00
2022-11-25T17:30:27.518Z,101339.00
2022-11-25T17:33:07.390Z,101343.00
2022-11-25T17:35:34.093Z,101343.00
2022-11-25T17:38:01.462Z,101347.00
2022-11-25T17:40:28.343Z,101341.00
2022-11-25T17:42:55.182Z,101347.00
2022-11-25T17:45:22.381Z,101357.00
2022-11-25T17:47:49.333Z,101351.00
2022-11-25T17:50:21.689Z,101349.00
2022-11-25T17:52:50.080Z,101359.00
2022-11-25T17:55:19.626Z,101358.00
2022-11-25T17:57:48.067Z,101360.00
2022-11-25T18:00:19.651Z,101365.00
2022-11-25T18:02:46.990Z,101369.00
2022-11-25T18:05:18.022Z,101360.00
2022-11-25T18:07:44.859Z,101364.00
2022-11-25T18:10:16.299Z,101374.00
2022-11-25T18:12:46.256Z,101365.00
2022-11-25T18:15:20.522Z,101376.00
2022-11-25T18:17:48.784Z,101368.00
2022-11-25T18:20:21.521Z,101383.00
2022-11-25T18:22:49.840Z,101377.00
2022-11-25T18:25:27.813Z,101384.00
2022-11-25T18:27:56.570Z,101391.00
2022-11-25T18:30:29.184Z,101383.00
2022-11-25T18:32:57.349Z,101382.00
2022-11-25T18:35:36.126Z,101383.00
2022-11-25T18:38:05.083Z,101393.00
2022-11-25T18:40:33.832Z,101383.00
2022-11-25T18:43:04.077Z,101383.00
2022-11-25T18:45:37.322Z,101391.00
2022-11-25T18:48:22.792Z,101401.00
2022-11-25T18:50:52.615Z,101401.00
2022-11-25T18:53:19.681Z,101397.00
2022-11-25T18:55:48.339Z,101403.00
2022-11-25T18:58:24.827Z,101409.00
2022-11-25T19:00:54.519Z,101409.00
2022-11-25T19:03:25.351Z,101415.00
2022-11-25T19:05:54.233Z,101415.00
2022-11-25T19:08:21.067Z,101409.00
2022-11-25T19:10:49.440Z,101416.00
2022-11-25T19:13:25.783Z,101420.00
2022-11-25T19:15:53.439Z,101424.00
2022-11-25T19:18:26.676Z,101432.00
2022-11-25T19:20:54.185Z,101433.00
2022-11-25T19:23:30.903Z,101430.00
2022-11-25T19:26:13.402Z,101438.00
2022-11-25T19:28:42.586Z,101437.00
2022-11-25T19:31:11.389Z,101430.00
2022-11-25T19:33:43.640Z,101431.00
2022-11-25T19:36:26.909Z,101444.00
2022-11-25T19:38:54.352Z,101451.00
2022-11-25T19:41:21.411Z,101453.00
2022-11-25T19:43:48.244Z,101449.00
2022-11-25T19:46:30.024Z,101453.00
2022-11-25T19:49:02.528Z,101459.00
2022-11-25T19:51:33.790Z,101459.00
2022-11-25T19:54:00.686Z,101469.00
2022-11-25T19:56:27.523Z,101465.00
2022-11-25T19:58:54.946Z,101471.00
2022-11-25T20:01:31.159Z,101474.00
2022-11-25T20:03:58.546Z,101474.00
2022-11-25T20:06:26.050Z,101483.00
2022-11-25T20:08:52.799Z,101494.00
2022-11-25T20:11:19.812Z,101484.00
2022-11-25T20:13:47.374Z,101485.00
2022-11-25T20:16:25.258Z,101496.00
2022-11-25T20:18:53.464Z,101497.00
2022-11-25T20:21:38.003Z,101498.00
2022-11-25T20:24:12.478Z,101504.00
2022-11-25T20:26:41.645Z,101513.00
2022-11-25T20:29:21.328Z,101509.00
2022-11-25T20:31:49.808Z,101514.00
2022-11-25T20:34:16.646Z,101512.00
2022-11-25T20:36:44.981Z,101516.00
2022-11-25T20:39:18.871Z,101520.00
2022-11-25T20:41:52.718Z,101518.00
2022-11-25T20:44:20.861Z,101522.00
2022-11-25T20:46:48.150Z,101525.00
2022-11-25T20:49:29.537Z,101521.00
2022-11-25T20:51:57.581Z,101533.00
2022-11-25T20:54:24.693Z,101531.00
2022-11-25T20:56:51.496Z,101527.00
2022-11-25T20:59:23.695Z,101535.00
2022-11-25T21:01:51.186Z,101542.00
2022-11-25T21:04:18.487Z,101548.00
2022-11-25T21:06:46.360Z,101546.00
2022-11-25T21:09:21.652Z,101542.00
2022-11-25T21:11:48.848Z,101541.00
2022-11-25T21:14:18.857Z,101557.00
2022-11-25T21:16:46.782Z,101548.00
2022-11-25T21:19:13.602Z,101554.00
2022-11-25T21:21:45.022Z,101550.00
2022-11-25T21:24:28.141Z,101557.00
2022-11-25T21:26:57.698Z,101550.00
2022-11-25T21:29:26.916Z,101560.00
2022-11-25T21:31:53.735Z,101561.00
2022-11-25T21:34:20.927Z,101558.00
2022-11-25T21:36:51.911Z,101568.00
2022-11-25T21:39:29.325Z,101569.00
2022-11-25T21:42:01.996Z,101563.00
2022-11-25T21:44:37.397Z,101571.00
2022-11-25T21:47:14.810Z,101568.00
2022-11-25T21:49:42.157Z,101575.00
2022-11-25T21:52:08.874Z,101575.00
2022-11-25T21:54:36.030Z,101577.00
2022-11-25T21:57:03.602Z,101573.00
2022-11-25T21:59:31.002Z,101578.00
2022-11-25T22:01:57.940Z,101577.00
2022-11-25T22:04:24.736Z,101583.00
2022-11-25T22:06:51.741Z,101592.00
2022-11-25T22:09:19.051Z,101589.00
2022-11-25T22:11:50.349Z,101587.00
2022-11-25T22:14:34.033Z,101597.00
2022-11-25T22:17:05.014Z,101597.00
2022-11-25T22:19:32.233Z,101591.00
2022-11-25T22:21:59.287Z,101598.00
2022-11-25T22:24:26.128Z,101594.00
2022-11-25T22:26:57.857Z,101606.00
2022-11-25T22:29:32.751Z,101614.00
2022-11-25T22:31:59.619Z,101612.00
2022-11-25T22:34:26.414Z,101612.00
2022-11-25T22:36:53.215Z,101625.00
2022-11-25T22:39:26.802Z,101623.00
2022-11-25T22:42:06.875Z,101622.00
2022-11-25T22:44:44.768Z,101625.00
2022-11-25T22:47:37.356Z,101628.00
2022-11-25T22:50:20.767Z,101638.00
2022-11-25T22:52:48.515Z,101645.00
2022-11-25T22:55:20.456Z,101645.00
2022-11-25T22:57:49.346Z,101644.00
2022-11-25T23:00:22.047Z,101646.00
2022-11-25T23:02:51.030Z,101648.00
2022-11-25T23:05:33.451Z,101657.00
2022-11-25T23:08:10.096Z,101656.00
2022-11-25T23:10:36.944Z,101644.00
2022-11-25T23:13:03.831Z,101648.00
2022-11-25T23:15:31.165Z,101660.00
2022-11-25T23:18:02.650Z,101658.00
2022-11-25T23:20:36.454Z,101664.00
2022-11-25T23:23:19.034Z,101661.00
2022-11-25T23:25:46.452Z,101667.00
2022-11-25T23:28:14.069Z,101660.00
2022-11-25T23:31:01.653Z,101671.00
2022-11-25T23:33:43.508Z,101679.00
2022-11-25T23:36:16.774Z,101679.00
2022-11-25T23:38:49.879Z,101681.00
2022-11-25T23:41:30.389Z,101685.00
2022-11-25T23:44:02.176Z,101688.00
2022-11-25T23:46:34.488Z,101687.00
2022-11-25T23:49:03.959Z,101696.00
2022-11-25T23:51:31.156Z,101693.00
2022-11-25T23:53:58.845Z,101692.00
2022-11-25T23:56:28.062Z,101692.00
2022-11-25T23:58:55.111Z,101685.00
